sensor_id;sensor_type;location;lat;lon;timestamp;pressure;altitude;pressure_sealevel;temperature;humidity
36190;BME280;22232;50.914;13.858;2023-07-30T00:01:35;97257.59;;;16.68;100.00
36190;BME280;22232;50.914;13.858;2023-07-30T00:04:04;97258.47;;;16.58;100.00
36190;BME280;22232;50.914;13.858;2023-07-30T00:06:31;97255.88;;;16.48;100.00
36190;BME280;22232;50.914;13.858;2023-07-30T00:08:59;97249.38;;;16.49;100.00
36190;BME280;22232;50.914;13.858;2023-07-30T00:11:27;97243.75;;;16.50;100.00
36190;BME280;22232;50.914;13.858;2023-07-30T00:13:54;97229.97;;;16.52;100.00
36190;BME280;22232;50.914;13.858;2023-07-30T00:16:22;97239.13;;;16.56;100.00
36190;BME280;22232;50.914;13.858;2023-07-30T00:18:52;97230.97;;;16.61;100.00
36190;BME280;22232;50.914;13.858;2023-07-30T00:21:20;97239.56;;;16.63;100.00
36190;BME280;22232;50.914;13.858;2023-07-30T00:23:48;97240.16;;;16.60;100.00
36190;BME280;22232;50.914;13.858;2023-07-30T00:26:15;97238.88;;;16.52;100.00
36190;BME280;22232;50.914;13.858;2023-07-30T00:28:43;97241.84;;;16.51;100.00
36190;BME280;22232;50.914;13.858;2023-07-30T00:31:11;97242.72;;;16.46;100.00
36190;BME280;22232;50.914;13.858;2023-07-30T00:33:39;97237.81;;;16.48;100.00
36190;BME280;22232;50.914;13.858;2023-07-30T00:36:06;97233.50;;;16.52;100.00
36190;BME280;22232;50.914;13.858;2023-07-30T00:38:34;97238.34;;;16.50;100.00
36190;BME280;22232;50.914;13.858;2023-07-30T00:41:02;97235.91;;;16.54;100.00
36190;BME280;22232;50.914;13.858;2023-07-30T00:43:29;97233.19;;;16.54;100.00
36190;BME280;22232;50.914;13.858;2023-07-30T00:45:57;97224.91;;;16.50;100.00
36190;BME280;22232;50.914;13.858;2023-07-30T00:48:25;97231.06;;;16.51;100.00
36190;BME280;22232;50.914;13.858;2023-07-30T00:50:53;97225.13;;;16.54;100.00
36190;BME280;22232;50.914;13.858;2023-07-30T00:53:23;97221.66;;;16.48;100.00
36190;BME280;22232;50.914;13.858;2023-07-30T00:55:51;97216.06;;;16.45;100.00
36190;BME280;22232;50.914;13.858;2023-07-30T00:58:20;97212.38;;;16.36;100.00
36190;BME280;22232;50.914;13.858;2023-07-30T01:00:50;97210.13;;;16.43;100.00
36190;BME280;22232;50.914;13.858;2023-07-30T01:03:19;97215.78;;;16.46;100.00
36190;BME280;22232;50.914;13.858;2023-07-30T01:05:47;97220.41;;;16.41;100.00
36190;BME280;22232;50.914;13.858;2023-07-30T01:08:15;97217.97;;;16.39;100.00
36190;BME280;22232;50.914;13.858;2023-07-30T01:10:43;97216.63;;;16.42;100.00
36190;BME280;22232;50.914;13.858;2023-07-30T01:13:11;97211.78;;;16.44;100.00
36190;BME280;22232;50.914;13.858;2023-07-30T01:15:41;97223.00;;;16.51;100.00
36190;BME280;22232;50.914;13.858;2023-07-30T01:18:09;97220.59;;;16.49;100.00
36190;BME280;22232;50.914;13.858;2023-07-30T01:20:37;97225.16;;;16.49;100.00
36190;BME280;22232;50.914;13.858;2023-07-30T01:23:05;97222.47;;;16.49;100.00
36190;BME280;22232;50.914;13.858;2023-07-30T01:25:36;97223.09;;;16.41;100.00
36190;BME280;22232;50.914;13.858;2023-07-30T01:28:05;97228.25;;;16.37;100.00
36190;BME280;22232;50.914;13.858;2023-07-30T01:30:42;97232.03;;;16.31;100.00
36190;BME280;22232;50.914;13.858;2023-07-30T01:33:11;97235.59;;;16.26;100.00
36190;BME280;22232;50.914;13.858;2023-07-30T01:35:41;97239.94;;;16.22;100.00
36190;BME280;22232;50.914;13.858;2023-07-30T01:38:10;97235.63;;;16.21;100.00
36190;BME280;22232;50.914;13.858;2023-07-30T01:40:39;97241.75;;;16.27;100.00
36190;BME280;22232;50.914;13.858;2023-07-30T01:43:07;97246.34;;;16.26;100.00
36190;BME280;22232;50.914;13.858;2023-07-30T01:45:35;97247.69;;;16.29;100.00
36190;BME280;22232;50.914;13.858;2023-07-30T01:48:02;97239.31;;;16.31;100.00
36190;BME280;22232;50.914;13.858;2023-07-30T01:50:30;97235.81;;;16.30;100.00
36190;BME280;22232;50.914;13.858;2023-07-30T01:53:01;97241.72;;;16.37;100.00
36190;BME280;22232;50.914;13.858;2023-07-30T01:55:29;97238.38;;;16.45;100.00
36190;BME280;22232;50.914;13.858;2023-07-30T01:57:56;97236.84;;;16.34;100.00
36190;BME280;22232;50.914;13.858;2023-07-30T02:00:24;97241.75;;;16.32;100.00
36190;BME280;22232;50.914;13.858;2023-07-30T02:03:03;97244.94;;;16.34;100.00
36190;BME280;22232;50.914;13.858;2023-07-30T02:05:31;97246.31;;;16.32;100.00
36190;BME280;22232;50.914;13.858;2023-07-30T02:07:59;97245.00;;;16.29;100.00
36190;BME280;22232;50.914;13.858;2023-07-30T02:10:26;97246.03;;;16.33;100.00
36190;BME280;22232;50.914;13.858;2023-07-30T02:12:54;97242.81;;;16.31;100.00
36190;BME280;22232;50.914;13.858;2023-07-30T02:15:22;97241.44;;;16.34;100.00
36190;BME280;22232;50.914;13.858;2023-07-30T02:17:49;97242.78;;;16.36;100.00
36190;BME280;22232;50.914;13.858;2023-07-30T02:20:17;97251.66;;;16.37;100.00
36190;BME280;22232;50.914;13.858;2023-07-30T02:22:45;97248.38;;;16.40;100.00
36190;BME280;22232;50.914;13.858;2023-07-30T02:25:13;97242.06;;;16.55;100.00
36190;BME280;22232;50.914;13.858;2023-07-30T02:27:41;97244.28;;;16.52;100.00
36190;BME280;22232;50.914;13.858;2023-07-30T02:30:09;97237.50;;;16.55;100.00
36190;BME280;22232;50.914;13.858;2023-07-30T02:32:37;97236.94;;;16.58;100.00
36190;BME280;22232;50.914;13.858;2023-07-30T02:35:05;97231.84;;;16.57;100.00
36190;BME280;22232;50.914;13.858;2023-07-30T02:37:33;97225.88;;;16.60;100.00
36190;BME280;22232;50.914;13.858;2023-07-30T02:40:01;97234.44;;;16.67;100.00
36190;BME280;22232;50.914;13.858;2023-07-30T02:42:32;97233.84;;;16.70;100.00
36190;BME280;22232;50.914;13.858;2023-07-30T02:45:00;97241.34;;;16.78;100.00
36190;BME280;22232;50.914;13.858;2023-07-30T02:47:27;97241.88;;;16.80;100.00
36190;BME280;22232;50.914;13.858;2023-07-30T02:49:55;97246.97;;;16.82;100.00
36190;BME280;22232;50.914;13.858;2023-07-30T02:52:23;97247.50;;;16.84;100.00
36190;BME280;22232;50.914;13.858;2023-07-30T02:54:51;97255.81;;;16.87;100.00
36190;BME280;22232;50.914;13.858;2023-07-30T02:57:18;97258.50;;;16.87;100.00
36190;BME280;22232;50.914;13.858;2023-07-30T02:59:46;97260.84;;;16.94;100.00
36190;BME280;22232;50.914;13.858;2023-07-30T03:02:14;97268.97;;;16.89;100.00
36190;BME280;22232;50.914;13.858;2023-07-30T03:04:42;97270.59;;;16.90;100.00
36190;BME280;22232;50.914;13.858;2023-07-30T03:07:10;97274.31;;;16.94;100.00
36190;BME280;22232;50.914;13.858;2023-07-30T03:09:37;97275.41;;;16.93;100.00
36190;BME280;22232;50.914;13.858;2023-07-30T03:12:05;97269.25;;;16.92;100.00
36190;BME280;22232;50.914;13.858;2023-07-30T03:14:33;97261.66;;;16.94;100.00
36190;BME280;22232;50.914;13.858;2023-07-30T03:17:01;97267.84;;;16.95;100.00
36190;BME280;22232;50.914;13.858;2023-07-30T03:19:29;97257.06;;;16.95;100.00
36190;BME280;22232;50.914;13.858;2023-07-30T03:21:56;97249.50;;;16.97;100.00
36190;BME280;22232;50.914;13.858;2023-07-30T03:24:24;97252.72;;;16.99;100.00
36190;BME280;22232;50.914;13.858;2023-07-30T03:26:52;97250.50;;;17.06;100.00
36190;BME280;22232;50.914;13.858;2023-07-30T03:29:20;97253.66;;;17.13;100.00
36190;BME280;22232;50.914;13.858;2023-07-30T03:31:47;97248.19;;;17.18;100.00
36190;BME280;22232;50.914;13.858;2023-07-30T03:34:15;97251.25;;;17.36;100.00
36190;BME280;22232;50.914;13.858;2023-07-30T03:36:43;97254.50;;;17.57;100.00
36190;BME280;22232;50.914;13.858;2023-07-30T03:39:10;97258.88;;;17.72;100.00
36190;BME280;22232;50.914;13.858;2023-07-30T03:41:38;97248.78;;;18.01;100.00
36190;BME280;22232;50.914;13.858;2023-07-30T03:44:06;97249.56;;;18.40;100.00
36190;BME280;22232;50.914;13.858;2023-07-30T03:46:34;97246.41;;;18.84;100.00
36190;BME280;22232;50.914;13.858;2023-07-30T03:49:02;97247.50;;;18.83;100.00
36190;BME280;22232;50.914;13.858;2023-07-30T03:51:29;97252.78;;;18.42;100.00
36190;BME280;22232;50.914;13.858;2023-07-30T03:53:57;97247.97;;;18.20;100.00
36190;BME280;22232;50.914;13.858;2023-07-30T03:56:26;97245.66;;;17.94;100.00
36190;BME280;22232;50.914;13.858;2023-07-30T03:58:54;97245.88;;;17.79;100.00
36190;BME280;22232;50.914;13.858;2023-07-30T04:01:22;97249.41;;;17.74;100.00
36190;BME280;22232;50.914;13.858;2023-07-30T04:03:50;97249.75;;;17.67;100.00
36190;BME280;22232;50.914;13.858;2023-07-30T04:06:18;97244.09;;;17.69;100.00
36190;BME280;22232;50.914;13.858;2023-07-30T04:08:45;97247.56;;;17.70;100.00
36190;BME280;22232;50.914;13.858;2023-07-30T04:11:13;97253.56;;;17.66;100.00
36190;BME280;22232;50.914;13.858;2023-07-30T04:13:42;97258.16;;;17.66;100.00
36190;BME280;22232;50.914;13.858;2023-07-30T04:16:10;97259.00;;;17.61;100.00
36190;BME280;22232;50.914;13.858;2023-07-30T04:18:38;97253.44;;;17.53;100.00
36190;BME280;22232;50.914;13.858;2023-07-30T04:21:05;97253.31;;;17.44;100.00
36190;BME280;22232;50.914;13.858;2023-07-30T04:23:33;97266.22;;;17.47;100.00
36190;BME280;22232;50.914;13.858;2023-07-30T04:26:01;97267.00;;;17.48;100.00
36190;BME280;22232;50.914;13.858;2023-07-30T04:28:29;97265.13;;;17.48;100.00
36190;BME280;22232;50.914;13.858;2023-07-30T04:30:57;97265.34;;;17.52;100.00
36190;BME280;22232;50.914;13.858;2023-07-30T04:33:24;97265.38;;;17.47;100.00
36190;BME280;22232;50.914;13.858;2023-07-30T04:35:54;97261.72;;;17.37;100.00
36190;BME280;22232;50.914;13.858;2023-07-30T04:38:22;97262.03;;;17.36;100.00
36190;BME280;22232;50.914;13.858;2023-07-30T04:40:51;97259.78;;;17.43;100.00
36190;BME280;22232;50.914;13.858;2023-07-30T04:43:18;97261.84;;;17.51;100.00
36190;BME280;22232;50.914;13.858;2023-07-30T04:45:52;97271.47;;;17.57;100.00
36190;BME280;22232;50.914;13.858;2023-07-30T04:48:21;97272.69;;;17.65;100.00
36190;BME280;22232;50.914;13.858;2023-07-30T04:50:48;97272.84;;;17.79;100.00
36190;BME280;22232;50.914;13.858;2023-07-30T04:53:16;97276.03;;;18.38;100.00
36190;BME280;22232;50.914;13.858;2023-07-30T04:55:46;97268.19;;;20.12;100.00
36190;BME280;22232;50.914;13.858;2023-07-30T04:58:14;97258.81;;;21.48;100.00
36190;BME280;22232;50.914;13.858;2023-07-30T05:00:43;97252.03;;;22.55;100.00
36190;BME280;22232;50.914;13.858;2023-07-30T05:03:10;97257.13;;;23.38;96.83
36190;BME280;22232;50.914;13.858;2023-07-30T05:05:38;97256.13;;;24.02;84.79
36190;BME280;22232;50.914;13.858;2023-07-30T05:08:07;97251.63;;;24.93;82.28
36190;BME280;22232;50.914;13.858;2023-07-30T05:10:35;97246.69;;;25.20;82.53
36190;BME280;22232;50.914;13.858;2023-07-30T05:13:02;97265.56;;;25.74;75.38
36190;BME280;22232;50.914;13.858;2023-07-30T05:15:30;97246.81;;;26.25;73.54
36190;BME280;22232;50.914;13.858;2023-07-30T05:17:58;97252.09;;;26.46;71.68
36190;BME280;22232;50.914;13.858;2023-07-30T05:20:25;97255.63;;;26.47;73.29
36190;BME280;22232;50.914;13.858;2023-07-30T05:22:53;97251.47;;;25.72;79.58
36190;BME280;22232;50.914;13.858;2023-07-30T05:25:21;97256.03;;;25.56;78.45
36190;BME280;22232;50.914;13.858;2023-07-30T05:27:50;97252.94;;;25.21;81.12
36190;BME280;22232;50.914;13.858;2023-07-30T05:30:17;97257.53;;;24.50;84.96
36190;BME280;22232;50.914;13.858;2023-07-30T05:32:45;97269.59;;;23.69;93.61
36190;BME280;22232;50.914;13.858;2023-07-30T05:35:13;97266.94;;;23.60;96.07
36190;BME280;22232;50.914;13.858;2023-07-30T05:37:41;97273.28;;;23.73;86.08
36190;BME280;22232;50.914;13.858;2023-07-30T05:40:08;97272.81;;;23.32;91.70
36190;BME280;22232;50.914;13.858;2023-07-30T05:42:36;97278.53;;;23.01;95.30
36190;BME280;22232;50.914;13.858;2023-07-30T05:45:04;97283.19;;;22.75;100.00
36190;BME280;22232;50.914;13.858;2023-07-30T05:47:32;97285.94;;;22.49;100.00
36190;BME280;22232;50.914;13.858;2023-07-30T05:50:02;97284.63;;;22.03;100.00
36190;BME280;22232;50.914;13.858;2023-07-30T05:52:30;97285.88;;;21.88;100.00
36190;BME280;22232;50.914;13.858;2023-07-30T05:54:57;97286.13;;;21.60;100.00
36190;BME280;22232;50.914;13.858;2023-07-30T05:57:25;97288.63;;;21.39;100.00
36190;BME280;22232;50.914;13.858;2023-07-30T05:59:53;97283.31;;;21.34;100.00
36190;BME280;22232;50.914;13.858;2023-07-30T06:02:21;97278.16;;;21.24;100.00
36190;BME280;22232;50.914;13.858;2023-07-30T06:04:48;97278.59;;;21.17;100.00
36190;BME280;22232;50.914;13.858;2023-07-30T06:07:16;97274.66;;;21.23;100.00
36190;BME280;22232;50.914;13.858;2023-07-30T06:09:44;97281.53;;;21.29;100.00
36190;BME280;22232;50.914;13.858;2023-07-30T06:12:12;97286.00;;;21.25;100.00
36190;BME280;22232;50.914;13.858;2023-07-30T06:14:40;97280.06;;;21.23;100.00
36190;BME280;22232;50.914;13.858;2023-07-30T06:17:08;97286.06;;;21.12;100.00
36190;BME280;22232;50.914;13.858;2023-07-30T06:19:36;97279.09;;;21.19;100.00
36190;BME280;22232;50.914;13.858;2023-07-30T06:22:03;97283.53;;;21.38;100.00
36190;BME280;22232;50.914;13.858;2023-07-30T06:24:31;97281.50;;;21.52;100.00
36190;BME280;22232;50.914;13.858;2023-07-30T06:27:02;97285.22;;;21.73;100.00
36190;BME280;22232;50.914;13.858;2023-07-30T06:29:29;97287.19;;;21.99;100.00
36190;BME280;22232;50.914;13.858;2023-07-30T06:31:57;97279.53;;;22.10;100.00
36190;BME280;22232;50.914;13.858;2023-07-30T06:34:25;97290.41;;;22.18;100.00
36190;BME280;22232;50.914;13.858;2023-07-30T06:36:52;97299.69;;;22.26;100.00
36190;BME280;22232;50.914;13.858;2023-07-30T06:39:20;97297.59;;;22.14;100.00
36190;BME280;22232;50.914;13.858;2023-07-30T06:41:49;97305.72;;;22.06;100.00
36190;BME280;22232;50.914;13.858;2023-07-30T06:44:18;97303.97;;;22.01;100.00
36190;BME280;22232;50.914;13.858;2023-07-30T06:46:46;97302.81;;;21.93;100.00
36190;BME280;22232;50.914;13.858;2023-07-30T06:49:13;97302.66;;;21.90;100.00
36190;BME280;22232;50.914;13.858;2023-07-30T06:51:41;97304.03;;;21.61;100.00
36190;BME280;22232;50.914;13.858;2023-07-30T06:54:09;97300.25;;;21.80;100.00
36190;BME280;22232;50.914;13.858;2023-07-30T06:56:37;97312.41;;;21.82;100.00
36190;BME280;22232;50.914;13.858;2023-07-30T06:59:04;97307.56;;;21.70;100.00
36190;BME280;22232;50.914;13.858;2023-07-30T07:01:32;97315.34;;;21.63;100.00
36190;BME280;22232;50.914;13.858;2023-07-30T07:04:00;97312.84;;;21.67;100.00
36190;BME280;22232;50.914;13.858;2023-07-30T07:06:28;97309.00;;;21.68;100.00
36190;BME280;22232;50.914;13.858;2023-07-30T07:08:55;97321.44;;;21.69;100.00
36190;BME280;22232;50.914;13.858;2023-07-30T07:11:23;97324.97;;;21.78;100.00
36190;BME280;22232;50.914;13.858;2023-07-30T07:13:51;97320.88;;;21.98;100.00
36190;BME280;22232;50.914;13.858;2023-07-30T07:16:18;97310.66;;;22.12;100.00
36190;BME280;22232;50.914;13.858;2023-07-30T07:18:46;97322.53;;;22.42;100.00
36190;BME280;22232;50.914;13.858;2023-07-30T07:21:16;97322.84;;;22.76;100.00
36190;BME280;22232;50.914;13.858;2023-07-30T07:23:43;97324.47;;;22.94;100.00
36190;BME280;22232;50.914;13.858;2023-07-30T07:26:11;97328.91;;;23.16;100.00
36190;BME280;22232;50.914;13.858;2023-07-30T07:28:39;97325.19;;;23.29;100.00
36190;BME280;22232;50.914;13.858;2023-07-30T07:31:06;97328.25;;;23.57;100.00
36190;BME280;22232;50.914;13.858;2023-07-30T07:33:34;97324.44;;;23.58;100.00
36190;BME280;22232;50.914;13.858;2023-07-30T07:36:06;97326.47;;;23.70;100.00
36190;BME280;22232;50.914;13.858;2023-07-30T07:38:34;97333.28;;;23.85;100.00
36190;BME280;22232;50.914;13.858;2023-07-30T07:41:03;97330.88;;;24.13;100.00
36190;BME280;22232;50.914;13.858;2023-07-30T07:43:31;97334.19;;;24.48;100.00
36190;BME280;22232;50.914;13.858;2023-07-30T07:45:59;97330.03;;;24.84;99.65
36190;BME280;22232;50.914;13.858;2023-07-30T07:48:27;97336.31;;;25.30;98.91
36190;BME280;22232;50.914;13.858;2023-07-30T07:50:54;97344.34;;;25.72;90.25
36190;BME280;22232;50.914;13.858;2023-07-30T07:53:22;97339.81;;;25.89;86.97
36190;BME280;22232;50.914;13.858;2023-07-30T07:55:50;97342.63;;;25.68;85.66
36190;BME280;22232;50.914;13.858;2023-07-30T07:58:18;97348.31;;;25.62;87.66
36190;BME280;22232;50.914;13.858;2023-07-30T08:00:45;97347.25;;;25.30;86.84
36190;BME280;22232;50.914;13.858;2023-07-30T08:03:13;97347.69;;;25.20;86.61
36190;BME280;22232;50.914;13.858;2023-07-30T08:05:41;97347.34;;;25.01;88.09
36190;BME280;22232;50.914;13.858;2023-07-30T08:08:08;97342.28;;;25.11;87.91
36190;BME280;22232;50.914;13.858;2023-07-30T08:10:40;97349.84;;;25.27;89.80
36190;BME280;22232;50.914;13.858;2023-07-30T08:13:10;97338.84;;;25.48;89.09
36190;BME280;22232;50.914;13.858;2023-07-30T08:15:38;97329.06;;;25.71;90.23
36190;BME280;22232;50.914;13.858;2023-07-30T08:18:06;97325.78;;;25.78;84.42
36190;BME280;22232;50.914;13.858;2023-07-30T08:20:33;97321.03;;;25.87;82.06
36190;BME280;22232;50.914;13.858;2023-07-30T08:23:01;97318.63;;;25.85;87.39
36190;BME280;22232;50.914;13.858;2023-07-30T08:25:29;97325.31;;;25.63;85.07
36190;BME280;22232;50.914;13.858;2023-07-30T08:27:57;97330.78;;;25.39;84.11
36190;BME280;22232;50.914;13.858;2023-07-30T08:30:24;97329.44;;;25.12;85.23
36190;BME280;22232;50.914;13.858;2023-07-30T08:32:52;97328.78;;;25.15;85.44
36190;BME280;22232;50.914;13.858;2023-07-30T08:35:20;97327.47;;;25.00;86.22
36190;BME280;22232;50.914;13.858;2023-07-30T08:37:47;97324.75;;;25.12;86.68
36190;BME280;22232;50.914;13.858;2023-07-30T08:40:15;97335.56;;;24.76;82.37
36190;BME280;22232;50.914;13.858;2023-07-30T08:42:44;97321.31;;;24.70;91.56
36190;BME280;22232;50.914;13.858;2023-07-30T08:45:12;97330.19;;;24.67;94.37
36190;BME280;22232;50.914;13.858;2023-07-30T08:47:40;97328.63;;;24.78;91.74
36190;BME280;22232;50.914;13.858;2023-07-30T08:50:08;97323.81;;;24.96;92.88
36190;BME280;22232;50.914;13.858;2023-07-30T08:52:36;97333.59;;;24.97;88.98
36190;BME280;22232;50.914;13.858;2023-07-30T08:55:05;97321.28;;;25.24;89.99
36190;BME280;22232;50.914;13.858;2023-07-30T08:57:33;97328.28;;;25.58;86.29
36190;BME280;22232;50.914;13.858;2023-07-30T09:00:06;97321.25;;;25.82;80.29
36190;BME280;22232;50.914;13.858;2023-07-30T09:03:01;97321.16;;;25.91;78.26
36190;BME280;22232;50.914;13.858;2023-07-30T09:05:30;97326.59;;;26.03;78.99
36190;BME280;22232;50.914;13.858;2023-07-30T09:07:58;97322.44;;;26.34;79.00
36190;BME280;22232;50.914;13.858;2023-07-30T09:10:26;97328.06;;;26.65;75.66
36190;BME280;22232;50.914;13.858;2023-07-30T09:12:55;97319.38;;;26.75;74.53
36190;BME280;22232;50.914;13.858;2023-07-30T09:15:33;97327.44;;;26.84;72.83
36190;BME280;22232;50.914;13.858;2023-07-30T09:18:01;97331.72;;;26.69;67.46
36190;BME280;22232;50.914;13.858;2023-07-30T09:20:39;97339.13;;;26.44;75.08
36190;BME280;22232;50.914;13.858;2023-07-30T09:23:09;97331.81;;;26.20;74.76
36190;BME280;22232;50.914;13.858;2023-07-30T09:25:38;97328.66;;;26.06;78.73
36190;BME280;22232;50.914;13.858;2023-07-30T09:28:06;97327.94;;;25.72;79.45
36190;BME280;22232;50.914;13.858;2023-07-30T09:30:34;97329.66;;;26.01;80.34
36190;BME280;22232;50.914;13.858;2023-07-30T09:33:02;97324.69;;;26.44;77.19
36190;BME280;22232;50.914;13.858;2023-07-30T09:35:32;97325.47;;;26.44;73.51
36190;BME280;22232;50.914;13.858;2023-07-30T09:38:02;97323.13;;;26.71;74.76
36190;BME280;22232;50.914;13.858;2023-07-30T09:40:37;97323.72;;;26.92;78.22
36190;BME280;22232;50.914;13.858;2023-07-30T09:43:06;97324.72;;;27.00;71.67
36190;BME280;22232;50.914;13.858;2023-07-30T09:45:35;97331.38;;;26.87;72.58
36190;BME280;22232;50.914;13.858;2023-07-30T09:48:05;97331.84;;;26.89;70.98
36190;BME280;22232;50.914;13.858;2023-07-30T09:50:33;97332.47;;;26.98;73.00
36190;BME280;22232;50.914;13.858;2023-07-30T09:53:02;97333.00;;;27.16;71.98
36190;BME280;22232;50.914;13.858;2023-07-30T09:55:30;97331.59;;;27.38;71.32
36190;BME280;22232;50.914;13.858;2023-07-30T09:57:58;97327.91;;;27.30;65.21
36190;BME280;22232;50.914;13.858;2023-07-30T10:00:27;97325.53;;;27.60;71.01
36190;BME280;22232;50.914;13.858;2023-07-30T10:02:58;97323.63;;;27.96;63.08
36190;BME280;22232;50.914;13.858;2023-07-30T10:05:29;97319.06;;;28.00;62.55
36190;BME280;22232;50.914;13.858;2023-07-30T10:08:04;97323.81;;;28.03;65.63
36190;BME280;22232;50.914;13.858;2023-07-30T10:10:33;97330.44;;;28.02;60.97
36190;BME280;22232;50.914;13.858;2023-07-30T10:13:05;97318.84;;;28.09;59.06
36190;BME280;22232;50.914;13.858;2023-07-30T10:15:35;97326.03;;;28.49;62.22
36190;BME280;22232;50.914;13.858;2023-07-30T10:18:04;97329.78;;;28.25;61.62
36190;BME280;22232;50.914;13.858;2023-07-30T10:20:33;97329.47;;;28.30;62.07
36190;BME280;22232;50.914;13.858;2023-07-30T10:23:01;97329.13;;;27.64;62.57
36190;BME280;22232;50.914;13.858;2023-07-30T10:25:48;97329.66;;;27.70;63.06
36190;BME280;22232;50.914;13.858;2023-07-30T10:28:33;97328.78;;;27.50;64.31
36190;BME280;22232;50.914;13.858;2023-07-30T10:31:04;97322.91;;;27.20;65.68
36190;BME280;22232;50.914;13.858;2023-07-30T10:33:52;97312.75;;;27.20;67.41
36190;BME280;22232;50.914;13.858;2023-07-30T10:36:32;97320.31;;;27.11;67.83
36190;BME280;22232;50.914;13.858;2023-07-30T10:39:19;97315.78;;;27.15;69.07
36190;BME280;22232;50.914;13.858;2023-07-30T10:41:58;97318.00;;;27.26;70.14
36190;BME280;22232;50.914;13.858;2023-07-30T10:44:34;97320.03;;;27.29;65.76
36190;BME280;22232;50.914;13.858;2023-07-30T10:47:03;97319.31;;;27.32;65.10
36190;BME280;22232;50.914;13.858;2023-07-30T10:49:41;97321.56;;;27.14;68.82
36190;BME280;22232;50.914;13.858;2023-07-30T10:52:11;97320.84;;;27.01;63.79
36190;BME280;22232;50.914;13.858;2023-07-30T10:54:39;97319.81;;;26.77;67.27
36190;BME280;22232;50.914;13.858;2023-07-30T10:57:06;97324.97;;;26.26;70.76
36190;BME280;22232;50.914;13.858;2023-07-30T10:59:36;97323.47;;;26.29;72.30
36190;BME280;22232;50.914;13.858;2023-07-30T11:02:04;97329.09;;;26.20;73.80
36190;BME280;22232;50.914;13.858;2023-07-30T11:04:35;97328.53;;;26.15;75.61
36190;BME280;22232;50.914;13.858;2023-07-30T11:07:03;97319.75;;;26.09;73.65
36190;BME280;22232;50.914;13.858;2023-07-30T11:09:31;97322.47;;;26.21;74.78
36190;BME280;22232;50.914;13.858;2023-07-30T11:11:59;97319.09;;;26.52;67.60
36190;BME280;22232;50.914;13.858;2023-07-30T11:14:27;97313.69;;;26.68;67.54
36190;BME280;22232;50.914;13.858;2023-07-30T11:16:58;97310.06;;;26.64;67.29
36190;BME280;22232;50.914;13.858;2023-07-30T11:19:28;97312.09;;;27.39;67.02
36190;BME280;22232;50.914;13.858;2023-07-30T11:21:57;97316.31;;;28.00;60.72
36190;BME280;22232;50.914;13.858;2023-07-30T11:24:35;97309.31;;;28.77;56.93
36190;BME280;22232;50.914;13.858;2023-07-30T11:27:03;97307.09;;;28.44;53.09
36190;BME280;22232;50.914;13.858;2023-07-30T11:29:31;97300.47;;;28.29;54.77
36190;BME280;22232;50.914;13.858;2023-07-30T11:31:59;97298.34;;;28.57;53.82
36190;BME280;22232;50.914;13.858;2023-07-30T11:34:30;97303.06;;;28.99;54.29
36190;BME280;22232;50.914;13.858;2023-07-30T11:37:02;97295.13;;;29.14;53.56
36190;BME280;22232;50.914;13.858;2023-07-30T11:39:30;97293.91;;;29.57;51.90
36190;BME280;22232;50.914;13.858;2023-07-30T11:41:58;97294.66;;;29.77;51.58
36190;BME280;22232;50.914;13.858;2023-07-30T11:44:36;97287.56;;;30.03;49.28
36190;BME280;22232;50.914;13.858;2023-07-30T11:47:08;97299.75;;;29.79;48.93
36190;BME280;22232;50.914;13.858;2023-07-30T11:49:39;97294.88;;;28.80;49.13
36190;BME280;22232;50.914;13.858;2023-07-30T11:52:07;97302.31;;;28.79;50.43
36190;BME280;22232;50.914;13.858;2023-07-30T11:54:36;97306.53;;;28.38;53.64
36190;BME280;22232;50.914;13.858;2023-07-30T11:57:04;97301.97;;;28.26;53.24
36190;BME280;22232;50.914;13.858;2023-07-30T11:59:32;97294.38;;;28.00;52.95
36190;BME280;22232;50.914;13.858;2023-07-30T12:02:00;97297.44;;;27.79;52.58
36190;BME280;22232;50.914;13.858;2023-07-30T12:04:43;97290.34;;;27.47;52.71
36190;BME280;22232;50.914;13.858;2023-07-30T12:07:22;97287.78;;;27.38;53.05
36190;BME280;22232;50.914;13.858;2023-07-30T12:09:50;97284.50;;;27.32;51.37
36190;BME280;22232;50.914;13.858;2023-07-30T12:12:17;97284.50;;;27.16;51.40
36190;BME280;22232;50.914;13.858;2023-07-30T12:17:15;97276.25;;;27.96;50.99
36190;BME280;22232;50.914;13.858;2023-07-30T12:19:43;97262.41;;;28.43;50.36
36190;BME280;22232;50.914;13.858;2023-07-30T12:22:11;97263.81;;;28.76;49.15
36190;BME280;22232;50.914;13.858;2023-07-30T12:24:40;97258.59;;;29.10;48.82
36190;BME280;22232;50.914;13.858;2023-07-30T12:27:08;97252.41;;;28.74;48.16
36190;BME280;22232;50.914;13.858;2023-07-30T12:29:36;97239.28;;;28.64;48.46
36190;BME280;22232;50.914;13.858;2023-07-30T12:32:03;97241.44;;;28.54;47.92
36190;BME280;22232;50.914;13.858;2023-07-30T12:34:31;97242.03;;;28.64;48.71
36190;BME280;22232;50.914;13.858;2023-07-30T12:36:59;97229.34;;;28.55;47.18
36190;BME280;22232;50.914;13.858;2023-07-30T12:39:27;97247.16;;;28.65;48.87
36190;BME280;22232;50.914;13.858;2023-07-30T12:41:55;97244.31;;;28.81;47.93
36190;BME280;22232;50.914;13.858;2023-07-30T12:44:22;97255.91;;;29.13;47.93
36190;BME280;22232;50.914;13.858;2023-07-30T12:46:50;97254.50;;;29.46;46.58
36190;BME280;22232;50.914;13.858;2023-07-30T12:49:18;97256.38;;;29.42;46.02
36190;BME280;22232;50.914;13.858;2023-07-30T12:51:46;97255.03;;;29.09;46.91
36190;BME280;22232;50.914;13.858;2023-07-30T12:54:47;97257.56;;;28.56;47.54
36190;BME280;22232;50.914;13.858;2023-07-30T12:57:17;97260.88;;;28.65;48.43